Ongar, United Kingdom
Current Conditions -  °F | °C
As of 6:20 PM on Friday 28 Nov 2014 (Local Time) from EGSS Reporting Station
Haze Haze  
Wind Chill:   Ceiling: Unl
Heat Index:   Visibility: 3mi
Dew Point:   Wind: 12mph
Humidity: 100%   Direction: 80°E
Pressure: 29.68"   Gusts: NA
Location:  51.71°N, 0.24°E
Report Text: EGSS 281820Z 08010KT 5000 BR NSC 09/09 Q1005
Loading
Personal Weather Stations






























Interactive Weather Map New forecast layout! Learn more

10-Day Weather Forecast

Advertisements
Track Severe Weather on mobile